SCO15GH EGPH-EGCC
Flight info
| Callsign | SCO15GH |
|---|---|
| Flight time | 0h 37m |
| Altitude | 23000 |
| Route | GOSAM P600 FENIK L612 LAKEY |
| Aircraft | B738/M-SDE2E3FGHIRWXY/LB1 |
Departure
| Time | 2026-04-25 00:20 |
|---|---|
| Airport | Edinburgh Airport (EGPH) |
Arrival
| Time | 2026-04-25 00:57 |
|---|---|
| Airport | Manchester Airport (EGCC) |
| Time | Latitude | Longitude | Altitude | Speed | Heading |
|---|---|---|---|---|---|
| 2026-04-25 00:04 | 55.94702 | -3.36608 | 115 ft | 0 kts | 89° |
| 2026-04-25 00:12 | 55.94702 | -3.36611 | 115 ft | 2 kts | 89° |
| 2026-04-25 00:13 | 55.94702 | -3.36641 | 111 ft | 2 kts | 89° |
| 2026-04-25 00:13 | 55.94701 | -3.36670 | 113 ft | 2 kts | 79° |
| 2026-04-25 00:13 | 55.94695 | -3.36697 | 111 ft | 2 kts | 27° |
| 2026-04-25 00:13 | 55.94687 | -3.36701 | 111 ft | 1 kts | 355° |
| 2026-04-25 00:14 | 55.94684 | -3.36701 | 111 ft | 0 kts | 354° |
| 2026-04-25 00:15 | 55.94690 | -3.36703 | 111 ft | 5 kts | 351° |
| 2026-04-25 00:15 | 55.94763 | -3.36756 | 115 ft | 14 kts | 326° |
| 2026-04-25 00:16 | 55.94860 | -3.36779 | 115 ft | 14 kts | 355° |
| 2026-04-25 00:16 | 55.94928 | -3.36876 | 113 ft | 13 kts | 267° |
| 2026-04-25 00:16 | 55.94885 | -3.37015 | 113 ft | 13 kts | 238° |
| 2026-04-25 00:16 | 55.94839 | -3.37151 | 115 ft | 15 kts | 239° |
| 2026-04-25 00:17 | 55.94768 | -3.37360 | 114 ft | 22 kts | 239° |
| 2026-04-25 00:17 | 55.94688 | -3.37594 | 115 ft | 22 kts | 239° |
| 2026-04-25 00:17 | 55.94610 | -3.37823 | 115 ft | 21 kts | 238° |
| 2026-04-25 00:17 | 55.94536 | -3.38042 | 115 ft | 21 kts | 239° |
| 2026-04-25 00:18 | 55.94463 | -3.38256 | 114 ft | 20 kts | 238° |
| 2026-04-25 00:18 | 55.94392 | -3.38465 | 112 ft | 19 kts | 239° |
| 2026-04-25 00:18 | 55.94324 | -3.38666 | 115 ft | 19 kts | 239° |
| 2026-04-25 00:18 | 55.94283 | -3.38844 | 115 ft | 13 kts | 288° |
| 2026-04-25 00:19 | 55.94354 | -3.38941 | 112 ft | 13 kts | 328° |
| 2026-04-25 00:19 | 55.94433 | -3.38919 | 113 ft | 13 kts | 56° |
| 2026-04-25 00:19 | 55.94482 | -3.38784 | 112 ft | 13 kts | 59° |
| 2026-04-25 00:19 | 55.94576 | -3.38496 | 111 ft | 58 kts | 58° |
| 2026-04-25 00:20 | 55.94929 | -3.37464 | 109 ft | 134 kts | 59° |
| 2026-04-25 00:20 | 55.95499 | -3.35802 | 455 ft | 168 kts | 54° |
| 2026-04-25 00:20 | 55.96446 | -3.34355 | 1091 ft | 195 kts | 26° |
| 2026-04-25 00:20 | 55.97743 | -3.34098 | 2158 ft | 187 kts | 343° |
| 2026-04-25 00:21 | 55.98826 | -3.35326 | 3017 ft | 195 kts | 309° |
| 2026-04-25 00:21 | 55.99594 | -3.37535 | 3351 ft | 225 kts | 298° |
| 2026-04-25 00:21 | 56.00426 | -3.40147 | 3720 ft | 253 kts | 300° |
| 2026-04-25 00:21 | 56.01262 | -3.42976 | 4484 ft | 262 kts | 287° |
| 2026-04-25 00:22 | 56.01437 | -3.46177 | 5396 ft | 265 kts | 264° |
| 2026-04-25 00:22 | 56.01204 | -3.48382 | 5720 ft | 267 kts | 256° |
| 2026-04-25 00:22 | 56.00562 | -3.52654 | 5992 ft | 270 kts | 255° |
| 2026-04-25 00:22 | 56.00234 | -3.54829 | 6145 ft | 275 kts | 256° |
| 2026-04-25 00:23 | 55.99746 | -3.58127 | 7098 ft | 272 kts | 256° |
| 2026-04-25 00:23 | 55.99264 | -3.61420 | 8022 ft | 275 kts | 256° |
| 2026-04-25 00:23 | 55.98782 | -3.64754 | 8892 ft | 279 kts | 257° |
| 2026-04-25 00:23 | 55.98295 | -3.68137 | 9756 ft | 283 kts | 257° |
| 2026-04-25 00:24 | 55.97800 | -3.71576 | 10562 ft | 289 kts | 257° |
| 2026-04-25 00:24 | 55.97281 | -3.75187 | 10848 ft | 314 kts | 257° |
| 2026-04-25 00:24 | 55.96720 | -3.79082 | 11351 ft | 328 kts | 257° |
| 2026-04-25 00:24 | 55.96149 | -3.83026 | 12101 ft | 333 kts | 257° |
| 2026-04-25 00:25 | 55.95565 | -3.87055 | 12970 ft | 336 kts | 257° |
| 2026-04-25 00:25 | 55.94972 | -3.91131 | 13839 ft | 341 kts | 257° |
| 2026-04-25 00:25 | 55.94372 | -3.95247 | 14636 ft | 344 kts | 257° |
| 2026-04-25 00:25 | 55.93502 | -3.99185 | 15432 ft | 351 kts | 237° |
| 2026-04-25 00:26 | 55.91754 | -4.02233 | 16316 ft | 356 kts | 217° |
| 2026-04-25 00:26 | 55.89671 | -4.04666 | 17213 ft | 358 kts | 214° |
| 2026-04-25 00:26 | 55.87590 | -4.07138 | 18028 ft | 361 kts | 217° |
| 2026-04-25 00:26 | 55.85526 | -4.09714 | 18789 ft | 366 kts | 211° |
| 2026-04-25 00:27 | 55.83140 | -4.11420 | 19447 ft | 373 kts | 194° |
| 2026-04-25 00:27 | 55.80571 | -4.11803 | 20152 ft | 378 kts | 178° |
| 2026-04-25 00:27 | 55.77934 | -4.11411 | 20849 ft | 382 kts | 176° |
| 2026-04-25 00:27 | 55.75270 | -4.11006 | 21503 ft | 386 kts | 176° |
| 2026-04-25 00:28 | 55.72568 | -4.10620 | 22160 ft | 390 kts | 177° |
| 2026-04-25 00:28 | 55.69841 | -4.10254 | 22821 ft | 394 kts | 177° |
| 2026-04-25 00:28 | 55.67087 | -4.09899 | 23250 ft | 400 kts | 177° |
| 2026-04-25 00:28 | 55.64257 | -4.09543 | 23248 ft | 415 kts | 177° |
| 2026-04-25 00:29 | 55.61328 | -4.09178 | 23261 ft | 428 kts | 177° |
| 2026-04-25 00:29 | 55.58342 | -4.08806 | 23259 ft | 440 kts | 177° |
| 2026-04-25 00:29 | 55.55236 | -4.08418 | 23259 ft | 451 kts | 177° |
| 2026-04-25 00:29 | 55.52064 | -4.07916 | 23246 ft | 462 kts | 172° |
| 2026-04-25 00:30 | 55.48903 | -4.06615 | 23249 ft | 470 kts | 163° |
| 2026-04-25 00:30 | 55.45858 | -4.04439 | 23237 ft | 472 kts | 153° |
| 2026-04-25 00:30 | 55.43027 | -4.01675 | 23249 ft | 471 kts | 151° |
| 2026-04-25 00:30 | 55.40178 | -3.98802 | 23242 ft | 471 kts | 151° |
| 2026-04-25 00:31 | 55.37322 | -3.95941 | 23232 ft | 471 kts | 151° |
| 2026-04-25 00:31 | 55.34461 | -3.93121 | 23236 ft | 470 kts | 152° |
| 2026-04-25 00:31 | 55.31594 | -3.90335 | 23238 ft | 469 kts | 152° |
| 2026-04-25 00:31 | 55.28733 | -3.87578 | 23242 ft | 468 kts | 152° |
| 2026-04-25 00:32 | 55.25909 | -3.84866 | 23251 ft | 468 kts | 152° |
| 2026-04-25 00:32 | 55.23046 | -3.82119 | 23248 ft | 467 kts | 152° |
| 2026-04-25 00:32 | 55.20190 | -3.79380 | 23248 ft | 467 kts | 152° |
| 2026-04-25 00:32 | 55.17364 | -3.76674 | 23246 ft | 467 kts | 152° |
| 2026-04-25 00:33 | 55.14501 | -3.73935 | 23249 ft | 467 kts | 152° |
| 2026-04-25 00:33 | 55.11646 | -3.71207 | 23243 ft | 467 kts | 152° |
| 2026-04-25 00:33 | 55.08785 | -3.68478 | 23248 ft | 467 kts | 152° |
| 2026-04-25 00:33 | 55.05965 | -3.65792 | 23245 ft | 467 kts | 152° |
| 2026-04-25 00:34 | 55.03119 | -3.63085 | 23244 ft | 467 kts | 152° |
| 2026-04-25 00:34 | 55.00262 | -3.60372 | 23242 ft | 467 kts | 152° |
| 2026-04-25 00:34 | 54.97396 | -3.57658 | 23243 ft | 467 kts | 152° |
| 2026-04-25 00:34 | 54.94533 | -3.54963 | 23240 ft | 467 kts | 152° |
| 2026-04-25 00:35 | 54.91669 | -3.52275 | 23243 ft | 467 kts | 152° |
| 2026-04-25 00:35 | 54.88845 | -3.49631 | 23240 ft | 467 kts | 152° |
| 2026-04-25 00:35 | 54.85985 | -3.46954 | 23240 ft | 467 kts | 152° |
| 2026-04-25 00:35 | 54.83120 | -3.44276 | 23237 ft | 467 kts | 152° |
| 2026-04-25 00:36 | 54.80247 | -3.41594 | 23241 ft | 467 kts | 152° |
| 2026-04-25 00:36 | 54.77386 | -3.38925 | 23240 ft | 467 kts | 152° |
| 2026-04-25 00:36 | 54.74523 | -3.36261 | 23239 ft | 467 kts | 152° |
| 2026-04-25 00:36 | 54.71680 | -3.33655 | 23239 ft | 467 kts | 154° |
| 2026-04-25 00:37 | 54.68732 | -3.31270 | 23241 ft | 467 kts | 156° |
| 2026-04-25 00:37 | 54.65752 | -3.29037 | 23243 ft | 466 kts | 157° |
| 2026-04-25 00:37 | 54.62760 | -3.26858 | 23245 ft | 467 kts | 158° |
| 2026-04-25 00:37 | 54.59759 | -3.24675 | 23245 ft | 467 kts | 158° |
| 2026-04-25 00:38 | 54.56765 | -3.22478 | 23241 ft | 467 kts | 157° |
| 2026-04-25 00:38 | 54.53779 | -3.20268 | 23243 ft | 467 kts | 157° |
| 2026-04-25 00:38 | 54.50823 | -3.18069 | 23241 ft | 467 kts | 157° |
| 2026-04-25 00:38 | 54.47869 | -3.15864 | 23226 ft | 451 kts | 157° |
| 2026-04-25 00:39 | 54.45062 | -3.13769 | 23229 ft | 429 kts | 157° |
| 2026-04-25 00:39 | 54.42355 | -3.11752 | 23233 ft | 421 kts | 157° |
| 2026-04-25 00:39 | 54.39701 | -3.09780 | 23240 ft | 420 kts | 157° |
| 2026-04-25 00:39 | 54.37013 | -3.07787 | 23008 ft | 423 kts | 157° |
| 2026-04-25 00:40 | 54.34318 | -3.05791 | 22495 ft | 418 kts | 157° |
| 2026-04-25 00:40 | 54.31657 | -3.03823 | 21934 ft | 413 kts | 157° |
| 2026-04-25 00:40 | 54.29032 | -3.01883 | 21329 ft | 408 kts | 157° |
| 2026-04-25 00:40 | 54.26464 | -2.99989 | 20762 ft | 404 kts | 157° |
| 2026-04-25 00:41 | 54.23889 | -2.98074 | 20192 ft | 400 kts | 155° |
| 2026-04-25 00:41 | 54.21468 | -2.95732 | 19691 ft | 397 kts | 148° |
| 2026-04-25 00:41 | 54.19168 | -2.93133 | 19179 ft | 395 kts | 146° |
| 2026-04-25 00:41 | 54.16900 | -2.90481 | 18671 ft | 394 kts | 146° |
| 2026-04-25 00:42 | 54.14666 | -2.87874 | 18112 ft | 393 kts | 146° |
| 2026-04-25 00:42 | 54.12406 | -2.85271 | 17561 ft | 390 kts | 147° |
| 2026-04-25 00:42 | 54.10154 | -2.82712 | 17033 ft | 387 kts | 147° |
| 2026-04-25 00:42 | 54.07913 | -2.80190 | 16526 ft | 384 kts | 147° |
| 2026-04-25 00:43 | 54.05686 | -2.77699 | 16030 ft | 381 kts | 147° |
| 2026-04-25 00:43 | 54.03477 | -2.75238 | 15535 ft | 379 kts | 147° |
| 2026-04-25 00:43 | 54.01275 | -2.72789 | 15053 ft | 376 kts | 147° |
| 2026-04-25 00:43 | 53.99087 | -2.70359 | 14563 ft | 375 kts | 147° |
| 2026-04-25 00:44 | 53.96935 | -2.67971 | 14093 ft | 373 kts | 147° |
| 2026-04-25 00:44 | 53.94770 | -2.65572 | 13563 ft | 371 kts | 147° |
| 2026-04-25 00:44 | 53.92613 | -2.63184 | 13043 ft | 368 kts | 147° |
| 2026-04-25 00:44 | 53.90495 | -2.60841 | 12558 ft | 363 kts | 147° |
| 2026-04-25 00:45 | 53.88401 | -2.58528 | 12071 ft | 353 kts | 147° |
| 2026-04-25 00:45 | 53.86372 | -2.56290 | 11613 ft | 339 kts | 147° |
| 2026-04-25 00:45 | 53.84438 | -2.54160 | 11189 ft | 326 kts | 147° |
| 2026-04-25 00:45 | 53.82558 | -2.52092 | 10770 ft | 315 kts | 147° |
| 2026-04-25 00:46 | 53.80781 | -2.50139 | 10379 ft | 306 kts | 147° |
| 2026-04-25 00:46 | 53.79027 | -2.48212 | 10177 ft | 292 kts | 147° |
| 2026-04-25 00:46 | 53.75631 | -2.44485 | 9263 ft | 288 kts | 147° |
| 2026-04-25 00:47 | 53.73970 | -2.42665 | 8836 ft | 282 kts | 147° |
| 2026-04-25 00:47 | 53.72357 | -2.40897 | 8460 ft | 277 kts | 147° |
| 2026-04-25 00:47 | 53.70751 | -2.39141 | 8093 ft | 272 kts | 147° |
| 2026-04-25 00:47 | 53.69177 | -2.37422 | 7743 ft | 269 kts | 147° |
| 2026-04-25 00:48 | 53.67617 | -2.35720 | 7395 ft | 263 kts | 147° |
| 2026-04-25 00:48 | 53.66204 | -2.33839 | 7132 ft | 255 kts | 134° |
| 2026-04-25 00:48 | 53.65026 | -2.31641 | 6930 ft | 251 kts | 130° |
| 2026-04-25 00:48 | 53.63906 | -2.29406 | 6745 ft | 255 kts | 129° |
| 2026-04-25 00:49 | 53.62750 | -2.27097 | 6533 ft | 259 kts | 130° |
| 2026-04-25 00:49 | 53.61576 | -2.24774 | 6302 ft | 257 kts | 130° |
| 2026-04-25 00:49 | 53.60413 | -2.22498 | 6084 ft | 255 kts | 130° |
| 2026-04-25 00:49 | 53.59256 | -2.20249 | 5871 ft | 253 kts | 131° |
| 2026-04-25 00:50 | 53.58106 | -2.18025 | 5612 ft | 252 kts | 131° |
| 2026-04-25 00:50 | 53.56965 | -2.15824 | 5251 ft | 256 kts | 131° |
| 2026-04-25 00:50 | 53.55800 | -2.13582 | 4991 ft | 250 kts | 131° |
| 2026-04-25 00:50 | 53.54679 | -2.11430 | 4772 ft | 239 kts | 131° |
| 2026-04-25 00:51 | 53.53604 | -2.09368 | 4593 ft | 227 kts | 131° |
| 2026-04-25 00:51 | 53.52600 | -2.07447 | 4411 ft | 212 kts | 131° |
| 2026-04-25 00:51 | 53.51643 | -2.05620 | 4236 ft | 205 kts | 131° |
| 2026-04-25 00:51 | 53.50705 | -2.03830 | 4069 ft | 203 kts | 131° |
| 2026-04-25 00:52 | 53.49781 | -2.02106 | 3903 ft | 197 kts | 138° |
| 2026-04-25 00:52 | 53.48563 | -2.01293 | 3736 ft | 189 kts | 186° |
| 2026-04-25 00:52 | 53.47432 | -2.02243 | 3628 ft | 186 kts | 230° |
| 2026-04-25 00:52 | 53.46616 | -2.03969 | 3453 ft | 193 kts | 232° |
| 2026-04-25 00:53 | 53.45781 | -2.05754 | 3198 ft | 193 kts | 232° |
| 2026-04-25 00:53 | 53.44965 | -2.07486 | 2943 ft | 184 kts | 232° |
| 2026-04-25 00:53 | 53.44191 | -2.09121 | 2710 ft | 174 kts | 232° |
| 2026-04-25 00:53 | 53.43459 | -2.10661 | 2483 ft | 163 kts | 232° |
| 2026-04-25 00:54 | 53.42796 | -2.12054 | 2284 ft | 148 kts | 232° |
| 2026-04-25 00:54 | 53.42177 | -2.13351 | 2091 ft | 139 kts | 232° |
| 2026-04-25 00:54 | 53.41580 | -2.14599 | 1902 ft | 136 kts | 231° |
| 2026-04-25 00:54 | 53.40984 | -2.15846 | 1735 ft | 138 kts | 231° |
| 2026-04-25 00:55 | 53.40387 | -2.17092 | 1547 ft | 138 kts | 231° |
| 2026-04-25 00:55 | 53.39787 | -2.18340 | 1364 ft | 137 kts | 231° |
| 2026-04-25 00:55 | 53.39185 | -2.19592 | 1172 ft | 138 kts | 230° |
| 2026-04-25 00:55 | 53.38580 | -2.20849 | 994 ft | 139 kts | 230° |
| 2026-04-25 00:56 | 53.37973 | -2.22114 | 803 ft | 139 kts | 230° |
| 2026-04-25 00:56 | 53.37374 | -2.23369 | 642 ft | 136 kts | 230° |
| 2026-04-25 00:56 | 53.36781 | -2.24596 | 513 ft | 138 kts | 229° |
| 2026-04-25 00:56 | 53.36182 | -2.25824 | 325 ft | 132 kts | 228° |
| 2026-04-25 00:57 | 53.35625 | -2.26976 | 260 ft | 116 kts | 232° |
| 2026-04-25 00:57 | 53.35252 | -2.27745 | 242 ft | 54 kts | 231° |
| 2026-04-25 00:57 | 53.35034 | -2.28198 | 227 ft | 49 kts | 233° |
| 2026-04-25 00:57 | 53.34946 | -2.28593 | 221 ft | 20 kts | 259° |
| 2026-04-25 00:58 | 53.34972 | -2.28748 | 219 ft | 15 kts | 338° |
| 2026-04-25 00:58 | 53.35054 | -2.28669 | 223 ft | 14 kts | 51° |
| 2026-04-25 00:58 | 53.35114 | -2.28543 | 226 ft | 14 kts | 52° |
| 2026-04-25 00:58 | 53.35172 | -2.28422 | 230 ft | 13 kts | 50° |
| 2026-04-25 00:59 | 53.35229 | -2.28307 | 233 ft | 13 kts | 51° |
| 2026-04-25 00:59 | 53.35286 | -2.28196 | 239 ft | 12 kts | 44° |
| 2026-04-25 00:59 | 53.35347 | -2.28099 | 239 ft | 12 kts | 44° |
| 2026-04-25 00:59 | 53.35414 | -2.27990 | 243 ft | 16 kts | 43° |
| 2026-04-25 01:00 | 53.35496 | -2.27857 | 247 ft | 16 kts | 45° |
| 2026-04-25 01:00 | 53.35575 | -2.27730 | 251 ft | 15 kts | 43° |
| 2026-04-25 01:00 | 53.35651 | -2.27606 | 255 ft | 15 kts | 46° |
| 2026-04-25 01:00 | 53.35717 | -2.27473 | 254 ft | 15 kts | 50° |
| 2026-04-25 01:01 | 53.35780 | -2.27341 | 254 ft | 14 kts | 53° |
| 2026-04-25 01:01 | 53.35838 | -2.27225 | 254 ft | 11 kts | 21° |
| 2026-04-25 01:01 | 53.35913 | -2.27236 | 254 ft | 11 kts | 350° |
| 2026-04-25 01:01 | 53.35971 | -2.27233 | 254 ft | 8 kts | 1° |
| 2026-04-25 01:02 | 53.36000 | -2.27174 | 254 ft | 7 kts | 86° |
| 2026-04-25 01:02 | 53.36001 | -2.27127 | 254 ft | 1 kts | 89° |